createdAt,value
2018-06-15T00:02:30.843Z,14.30
2018-06-15T00:04:59.228Z,14.30
2018-06-15T00:07:27.583Z,14.30
2018-06-15T00:09:57.037Z,14.30
2018-06-15T00:12:25.379Z,14.30
2018-06-15T00:14:53.762Z,14.30
2018-06-15T00:17:22.119Z,14.30
2018-06-15T00:19:50.500Z,14.30
2018-06-15T00:22:18.841Z,14.30
2018-06-15T00:24:47.222Z,14.30
2018-06-15T00:27:15.592Z,14.30
2018-06-15T00:29:43.987Z,14.30
2018-06-15T00:32:13.318Z,14.20
2018-06-15T00:34:41.758Z,14.20
2018-06-15T00:37:10.156Z,14.10
2018-06-15T00:39:38.552Z,14.10
2018-06-15T00:42:06.974Z,14.20
2018-06-15T00:44:35.381Z,14.20
2018-06-15T00:47:03.760Z,14.20
2018-06-15T00:49:32.145Z,14.20
2018-06-15T00:52:00.493Z,14.20
2018-06-15T00:54:28.891Z,14.20
2018-06-15T00:57:08.706Z,14.20
2018-06-15T00:59:37.088Z,14.20
2018-06-15T01:02:05.545Z,14.20
2018-06-15T01:04:33.884Z,14.20
2018-06-15T01:07:02.316Z,14.20
2018-06-15T01:09:30.638Z,14.20
2018-06-15T01:11:59.128Z,14.20
2018-06-15T01:14:27.464Z,14.20
2018-06-15T01:16:55.854Z,14.30
2018-06-15T01:19:24.227Z,14.20
2018-06-15T01:24:20.968Z,14.20
2018-06-15T01:26:49.365Z,14.20
2018-06-15T01:29:17.737Z,14.20
2018-06-15T01:31:46.137Z,14.20
2018-06-15T01:34:15.624Z,14.20
2018-06-15T01:39:12.329Z,14.20
2018-06-15T01:41:40.715Z,14.10
2018-06-15T01:44:09.044Z,14.10
2018-06-15T01:46:37.511Z,14.10
2018-06-15T01:49:05.866Z,14.10
2018-06-15T01:51:34.248Z,14.10
2018-06-15T01:54:02.615Z,14.10
2018-06-15T01:56:30.976Z,14.10
2018-06-15T01:58:59.384Z,14.10
2018-06-15T02:01:27.867Z,14.10
2018-06-15T02:03:56.089Z,14.10
2018-06-15T02:06:24.464Z,14.10
2018-06-15T02:08:52.855Z,14.10
2018-06-15T02:11:21.621Z,14.00
2018-06-15T02:13:50.041Z,14.10
2018-06-15T02:16:18.385Z,14.10
2018-06-15T02:18:46.767Z,14.10
2018-06-15T02:23:43.363Z,14.10
2018-06-15T02:26:11.723Z,14.10
2018-06-15T02:28:40.085Z,14.10
2018-06-15T02:31:08.530Z,14.10
2018-06-15T02:33:36.875Z,14.10
2018-06-15T02:36:05.244Z,14.10
2018-06-15T02:38:33.613Z,14.10
2018-06-15T02:41:01.997Z,14.10
2018-06-15T02:43:30.410Z,14.10
2018-06-15T02:45:58.793Z,14.00
2018-06-15T02:48:27.177Z,14.10
2018-06-15T02:50:55.545Z,14.00
2018-06-15T02:53:23.921Z,14.00
2018-06-15T02:55:52.323Z,14.00
2018-06-15T02:58:20.672Z,14.00
2018-06-15T03:00:49.048Z,14.00
2018-06-15T03:03:18.746Z,14.00
2018-06-15T03:05:47.218Z,13.90
2018-06-15T03:08:15.570Z,13.90
2018-06-15T03:15:40.044Z,13.90
2018-06-15T03:18:08.422Z,13.90
2018-06-15T03:20:36.830Z,13.90
2018-06-15T03:23:05.209Z,13.90
2018-06-15T03:25:33.572Z,13.90
2018-06-15T03:28:01.942Z,14.00
2018-06-15T03:30:30.438Z,14.00
2018-06-15T03:32:58.837Z,14.00
2018-06-15T03:37:55.326Z,14.00
2018-06-15T03:40:23.723Z,14.00
2018-06-15T03:42:52.165Z,14.00
2018-06-15T03:45:20.547Z,14.00
2018-06-15T03:47:48.937Z,14.00
2018-06-15T03:50:17.328Z,14.00
2018-06-15T03:52:45.691Z,14.00
2018-06-15T03:55:14.062Z,14.00
2018-06-15T03:57:42.429Z,14.00
2018-06-15T04:00:10.825Z,14.00
2018-06-15T04:02:39.197Z,14.00
2018-06-15T04:05:07.556Z,14.00
2018-06-15T04:10:04.152Z,14.10
2018-06-15T04:12:32.598Z,14.10
2018-06-15T04:15:00.961Z,14.20
2018-06-15T04:17:30.556Z,14.20
2018-06-15T04:19:58.903Z,14.30
2018-06-15T04:22:27.281Z,14.30
2018-06-15T04:24:55.676Z,14.40
2018-06-15T04:27:24.029Z,14.40
2018-06-15T04:29:52.399Z,14.50
2018-06-15T04:32:20.874Z,14.50
2018-06-15T04:34:49.253Z,14.50
2018-06-15T04:37:17.646Z,14.60
2018-06-15T04:39:46.015Z,14.60
2018-06-15T04:42:14.411Z,14.60
2018-06-15T04:44:42.837Z,14.60
2018-06-15T04:47:11.248Z,14.60
2018-06-15T04:49:39.930Z,14.60
2018-06-15T04:52:08.275Z,14.70
2018-06-15T04:54:36.631Z,14.70
2018-06-15T04:57:05.002Z,14.70
2018-06-15T04:59:33.361Z,14.70
2018-06-15T05:02:01.731Z,14.80
2018-06-15T05:04:30.101Z,14.90
2018-06-15T05:06:58.439Z,15.00
2018-06-15T05:09:26.779Z,15.00
2018-06-15T05:11:55.917Z,15.10
2018-06-15T05:14:24.271Z,15.10
2018-06-15T05:16:52.679Z,15.10
2018-06-15T05:19:21.078Z,15.10
2018-06-15T05:21:49.508Z,15.10
2018-06-15T05:24:17.879Z,15.00
2018-06-15T05:26:46.294Z,15.00
2018-06-15T05:29:14.668Z,15.00
2018-06-15T05:31:43.074Z,15.00
2018-06-15T05:34:11.474Z,15.10
2018-06-15T05:36:39.880Z,15.30
2018-06-15T05:39:09.745Z,15.30
2018-06-15T05:41:38.175Z,15.30
2018-06-15T05:44:06.585Z,15.40
2018-06-15T05:46:34.960Z,15.40
2018-06-15T05:49:03.563Z,15.40
2018-06-15T05:51:32.838Z,15.40
2018-06-15T05:54:01.269Z,15.40
2018-06-15T05:56:29.667Z,15.50
2018-06-15T05:58:58.073Z,15.60
2018-06-15T06:01:26.498Z,15.60
2018-06-15T06:03:55.285Z,15.80
2018-06-15T06:06:23.683Z,16.00
2018-06-15T06:08:52.014Z,16.30
2018-06-15T06:11:20.489Z,16.40
2018-06-15T06:13:48.845Z,16.60
2018-06-15T06:16:17.235Z,16.80
2018-06-15T06:18:45.603Z,16.90
2018-06-15T06:21:13.999Z,17.00
2018-06-15T06:23:42.827Z,17.20
2018-06-15T06:26:11.196Z,17.40
2018-06-15T06:31:08.241Z,18.00
2018-06-15T06:33:36.601Z,18.10
2018-06-15T06:36:05.045Z,18.20
2018-06-15T06:38:33.426Z,18.30
2018-06-15T06:41:01.861Z,18.30
2018-06-15T06:43:30.236Z,18.50
2018-06-15T06:45:58.571Z,18.60
2018-06-15T06:48:26.989Z,18.60
2018-06-15T06:50:55.349Z,18.70
2018-06-15T06:53:23.737Z,18.80
2018-06-15T06:55:52.079Z,19.10
2018-06-15T06:58:20.445Z,19.40
2018-06-15T07:00:48.807Z,19.60
2018-06-15T07:05:45.237Z,20.00
2018-06-15T07:08:13.627Z,20.00
2018-06-15T07:10:42.029Z,20.30
2018-06-15T07:13:10.446Z,20.40
2018-06-15T07:15:38.775Z,20.50
2018-06-15T07:18:07.416Z,20.60
2018-06-15T07:20:35.755Z,20.60
2018-06-15T07:23:04.448Z,20.50
2018-06-15T07:25:32.818Z,20.50
2018-06-15T07:28:01.171Z,20.60
2018-06-15T07:30:29.521Z,20.70
2018-06-15T07:32:57.932Z,20.80
2018-06-15T07:35:26.309Z,21.10
2018-06-15T07:37:54.705Z,21.30
2018-06-15T07:40:23.035Z,21.70
2018-06-15T07:42:51.402Z,22.20
2018-06-15T07:45:19.848Z,22.70
2018-06-15T07:47:48.210Z,22.90
2018-06-15T07:50:16.574Z,23.20
2018-06-15T07:52:44.940Z,23.20
2018-06-15T07:55:13.762Z,23.40
2018-06-15T07:57:42.141Z,23.50
2018-06-15T08:00:10.552Z,23.50
2018-06-15T08:02:38.908Z,23.40
2018-06-15T08:05:07.272Z,23.40
2018-06-15T08:07:35.637Z,23.60
2018-06-15T08:10:04.120Z,23.50
2018-06-15T08:12:32.525Z,23.50
2018-06-15T08:15:00.925Z,23.80
2018-06-15T08:17:29.347Z,23.80
2018-06-15T08:19:57.716Z,23.40
2018-06-15T08:22:26.143Z,23.50
2018-06-15T08:24:54.575Z,24.00
2018-06-15T08:27:23.004Z,24.30
2018-06-15T08:29:51.379Z,24.40
2018-06-15T08:32:19.833Z,24.50
2018-06-15T08:34:48.239Z,24.90
2018-06-15T08:37:16.625Z,24.90
2018-06-15T08:39:45.023Z,25.20
2018-06-15T08:42:13.460Z,25.20
2018-06-15T08:44:41.849Z,25.10
2018-06-15T08:47:10.300Z,25.00
2018-06-15T08:49:38.680Z,24.80
2018-06-15T08:52:07.466Z,24.70
2018-06-15T08:54:35.886Z,24.60
2018-06-15T08:57:04.311Z,24.50
2018-06-15T08:59:32.730Z,24.30
2018-06-15T09:02:01.151Z,24.10
2018-06-15T09:04:29.542Z,24.10
2018-06-15T09:06:57.922Z,24.20
2018-06-15T09:09:26.348Z,24.20
2018-06-15T09:11:54.774Z,24.30
2018-06-15T09:14:23.199Z,24.20
2018-06-15T09:16:51.548Z,24.30
2018-06-15T09:19:19.932Z,24.50
2018-06-15T09:21:48.314Z,24.60
2018-06-15T09:24:16.752Z,24.50
2018-06-15T09:26:45.134Z,24.30
2018-06-15T09:29:13.546Z,24.50
2018-06-15T09:31:41.932Z,24.30
2018-06-15T09:34:10.638Z,24.40
2018-06-15T09:36:39.060Z,24.60
2018-06-15T09:39:08.664Z,24.80
2018-06-15T09:41:37.017Z,25.00
2018-06-15T09:44:05.381Z,25.20
2018-06-15T09:49:01.857Z,25.60
2018-06-15T09:51:30.274Z,25.40
2018-06-15T09:53:58.708Z,25.40
2018-06-15T09:56:27.062Z,25.40
2018-06-15T09:58:56.759Z,25.50
2018-06-15T10:01:25.209Z,25.90
2018-06-15T10:03:53.581Z,26.60
2018-06-15T10:06:21.988Z,27.30
2018-06-15T10:08:50.367Z,27.90
2018-06-15T10:11:18.786Z,28.10
2018-06-15T10:13:47.166Z,28.20
2018-06-15T10:16:15.565Z,28.00
2018-06-15T10:18:43.935Z,28.30
2018-06-15T10:21:12.376Z,28.80
2018-06-15T10:23:40.718Z,29.40
2018-06-15T10:26:09.138Z,30.40
2018-06-15T10:28:37.547Z,30.80
2018-06-15T10:31:05.992Z,30.90
2018-06-15T10:33:34.343Z,30.90
2018-06-15T10:36:02.769Z,30.30
2018-06-15T10:40:59.382Z,29.60
2018-06-15T10:43:27.747Z,29.40
2018-06-15T10:45:56.132Z,29.30
2018-06-15T10:48:24.552Z,28.90
2018-06-15T10:50:52.926Z,28.40
2018-06-15T10:53:21.291Z,28.30
2018-06-15T10:55:49.659Z,28.50
2018-06-15T10:58:18.057Z,28.80
2018-06-15T11:00:46.922Z,28.80
2018-06-15T11:03:15.292Z,28.80
2018-06-15T11:05:43.787Z,28.50
2018-06-15T11:08:12.153Z,29.00
2018-06-15T11:10:40.508Z,29.20
2018-06-15T11:13:08.917Z,29.30
2018-06-15T11:15:37.259Z,29.90
2018-06-15T11:18:05.975Z,30.20
2018-06-15T11:20:34.361Z,30.40
2018-06-15T11:23:02.759Z,30.60
2018-06-15T11:25:31.159Z,30.90
2018-06-15T11:27:59.528Z,30.70
2018-06-15T11:30:27.924Z,31.20
2018-06-15T11:32:56.320Z,30.60
2018-06-15T11:40:20.836Z,31.60
2018-06-15T11:42:49.262Z,32.30
2018-06-15T11:45:17.656Z,32.60
2018-06-15T11:47:46.072Z,33.10
2018-06-15T11:52:42.530Z,34.70
2018-06-15T11:55:11.060Z,36.20
2018-06-15T11:57:39.989Z,37.10
2018-06-15T12:00:08.433Z,37.80
2018-06-15T12:02:36.768Z,38.00
2018-06-15T12:05:05.250Z,38.40
2018-06-15T12:07:33.668Z,39.70
2018-06-15T12:10:02.498Z,40.40
2018-06-15T12:12:30.874Z,41.20
2018-06-15T12:19:55.660Z,40.20
2018-06-15T12:22:24.295Z,39.70
2018-06-15T12:27:20.785Z,38.00
2018-06-15T12:29:49.151Z,37.80
2018-06-15T12:32:17.556Z,37.50
2018-06-15T12:34:45.906Z,38.20
2018-06-15T12:37:14.269Z,39.20
2018-06-15T12:39:42.649Z,40.10
2018-06-15T12:42:11.039Z,40.90
2018-06-15T12:44:39.444Z,41.50
2018-06-15T12:47:07.858Z,41.60
2018-06-15T12:49:36.273Z,41.20
2018-06-15T12:52:04.642Z,40.90
2018-06-15T12:54:33.073Z,40.90
2018-06-15T12:57:01.714Z,40.90
2018-06-15T12:59:30.122Z,41.00
2018-06-15T13:01:58.502Z,41.60
2018-06-15T13:04:26.965Z,42.30
2018-06-15T13:06:55.366Z,41.30
2018-06-15T13:09:23.755Z,40.20
2018-06-15T13:11:52.122Z,40.10
2018-06-15T13:14:20.553Z,40.50
2018-06-15T13:19:17.097Z,42.80
2018-06-15T13:21:45.559Z,42.10
2018-06-15T13:24:13.927Z,42.00
2018-06-15T13:26:42.423Z,40.90
2018-06-15T13:29:10.870Z,40.20
2018-06-15T13:31:39.253Z,38.70
2018-06-15T13:34:07.642Z,37.20
2018-06-15T13:36:36.059Z,36.50
2018-06-15T13:39:08.115Z,35.50
2018-06-15T13:41:36.506Z,34.70
2018-06-15T13:51:29.227Z,32.30
2018-06-15T13:53:57.605Z,32.30
2018-06-15T13:56:26.097Z,32.40
2018-06-15T13:58:54.488Z,32.90
2018-06-15T14:01:22.844Z,33.40
2018-06-15T14:03:51.320Z,34.00
2018-06-15T14:06:19.759Z,34.20
2018-06-15T14:08:48.100Z,33.70
2018-06-15T14:11:16.503Z,33.10
2018-06-15T14:13:44.876Z,33.20
2018-06-15T14:16:13.304Z,32.90
2018-06-15T14:18:41.696Z,32.60
2018-06-15T14:21:10.120Z,32.30
2018-06-15T14:23:38.532Z,31.80
2018-06-15T14:26:07.058Z,31.60
2018-06-15T14:28:35.415Z,31.10
2018-06-15T14:31:03.817Z,30.50
2018-06-15T14:33:32.236Z,30.30
2018-06-15T14:36:00.602Z,30.30
2018-06-15T14:38:29.031Z,30.10
2018-06-15T14:40:57.378Z,29.80
2018-06-15T14:43:25.790Z,29.60
2018-06-15T14:45:54.258Z,29.30
2018-06-15T14:48:22.631Z,28.60
2018-06-15T14:53:19.127Z,28.00
2018-06-15T14:55:47.545Z,28.00
2018-06-15T14:58:15.954Z,28.10
2018-06-15T15:00:46.624Z,27.80
2018-06-15T15:03:15.065Z,27.40
2018-06-15T15:05:43.399Z,27.30
2018-06-15T15:08:11.808Z,27.20
2018-06-15T15:13:08.281Z,27.00
2018-06-15T15:15:36.704Z,26.90
2018-06-15T15:18:05.120Z,26.90
2018-06-15T15:20:34.433Z,27.00
2018-06-15T15:23:02.857Z,26.90
2018-06-15T15:25:31.506Z,26.60
2018-06-15T15:27:59.891Z,26.30
2018-06-15T15:30:28.317Z,26.20
2018-06-15T15:32:56.889Z,26.20
2018-06-15T15:35:25.255Z,26.40
2018-06-15T15:37:53.829Z,26.30
2018-06-15T15:40:22.222Z,26.10
2018-06-15T15:42:50.568Z,26.00
2018-06-15T15:45:18.994Z,26.00
2018-06-15T15:47:47.356Z,26.10
2018-06-15T15:50:15.725Z,26.10
2018-06-15T15:52:44.132Z,26.10
2018-06-15T15:55:12.537Z,26.00
2018-06-15T15:57:40.961Z,26.00
2018-06-15T16:00:09.336Z,26.10
2018-06-15T16:02:37.696Z,26.00
2018-06-15T16:05:06.332Z,25.90
2018-06-15T16:07:34.690Z,25.50
2018-06-15T16:10:03.110Z,25.20
2018-06-15T16:12:31.453Z,25.00
2018-06-15T16:14:59.806Z,24.90
2018-06-15T16:17:28.177Z,25.00
2018-06-15T16:19:56.496Z,25.10
2018-06-15T16:22:24.876Z,24.90
2018-06-15T16:24:53.230Z,25.50
2018-06-15T16:27:21.684Z,24.90
2018-06-15T16:29:50.006Z,24.90
2018-06-15T16:32:18.391Z,24.80
2018-06-15T16:34:46.794Z,24.60
2018-06-15T16:37:15.229Z,24.50
2018-06-15T16:39:43.676Z,24.30
2018-06-15T16:42:12.015Z,24.30
2018-06-15T16:44:40.412Z,24.20
2018-06-15T16:47:08.790Z,24.10
2018-06-15T16:49:37.935Z,24.00
2018-06-15T16:52:06.369Z,23.90
2018-06-15T16:54:34.739Z,23.70
2018-06-15T16:57:03.103Z,23.70
2018-06-15T16:59:31.539Z,23.50
2018-06-15T17:01:59.894Z,23.50
2018-06-15T17:04:28.266Z,23.40
2018-06-15T17:06:56.637Z,23.40
2018-06-15T17:09:25.037Z,23.30
2018-06-15T17:11:53.382Z,23.20
2018-06-15T17:14:22.363Z,23.10
2018-06-15T17:16:50.748Z,23.10
2018-06-15T17:19:19.165Z,23.10
2018-06-15T17:21:47.581Z,23.10
2018-06-15T17:24:15.964Z,23.00
2018-06-15T17:26:44.408Z,22.80
2018-06-15T17:29:12.793Z,22.70
2018-06-15T17:31:41.180Z,22.80
2018-06-15T17:34:09.675Z,22.80
2018-06-15T17:36:42.277Z,22.80
2018-06-15T17:39:10.694Z,22.80
2018-06-15T17:44:07.152Z,22.70
2018-06-15T17:46:35.965Z,22.50
2018-06-15T17:49:04.540Z,22.30
2018-06-15T17:51:32.882Z,22.20
2018-06-15T17:54:01.254Z,22.20
2018-06-15T17:56:29.754Z,22.10
2018-06-15T17:58:58.116Z,22.00
2018-06-15T18:01:26.514Z,22.00
2018-06-15T18:03:54.879Z,21.90
2018-06-15T18:06:23.265Z,21.90
2018-06-15T18:08:51.729Z,21.90
2018-06-15T18:11:20.086Z,21.90
2018-06-15T18:13:48.508Z,21.80
2018-06-15T18:18:44.986Z,21.70
2018-06-15T18:21:13.382Z,21.60
2018-06-15T18:23:41.755Z,21.50
2018-06-15T18:26:10.163Z,21.50
2018-06-15T18:28:38.540Z,21.30
2018-06-15T18:31:07.266Z,21.30
2018-06-15T18:36:03.910Z,21.20
2018-06-15T18:38:32.300Z,21.20
2018-06-15T18:43:28.712Z,21.20
2018-06-15T18:45:57.181Z,21.20
2018-06-15T18:48:25.559Z,21.10
2018-06-15T18:50:53.970Z,21.00
2018-06-15T18:53:22.353Z,21.00
2018-06-15T18:55:50.760Z,21.00
2018-06-15T18:58:19.148Z,21.00
2018-06-15T19:00:47.550Z,20.90
2018-06-15T19:03:15.937Z,20.90
2018-06-15T19:05:44.527Z,20.90
2018-06-15T19:08:12.891Z,20.90
2018-06-15T19:10:41.304Z,20.80
2018-06-15T19:13:09.621Z,20.70
2018-06-15T19:15:38.058Z,20.70
2018-06-15T19:18:06.501Z,20.60
2018-06-15T19:20:34.951Z,20.50
2018-06-15T19:23:03.418Z,20.50
2018-06-15T19:25:31.863Z,20.40
2018-06-15T19:28:00.289Z,20.30
2018-06-15T19:30:28.684Z,20.30
2018-06-15T19:32:57.067Z,20.20
2018-06-15T19:35:25.512Z,20.10
2018-06-15T19:37:53.917Z,20.10
2018-06-15T19:40:22.397Z,20.00
2018-06-15T19:42:50.821Z,19.90
2018-06-15T19:45:19.525Z,19.80
2018-06-15T19:47:47.924Z,19.80
2018-06-15T19:50:16.291Z,19.70
2018-06-15T19:52:44.662Z,19.60
2018-06-15T19:55:13.135Z,19.50
2018-06-15T19:57:41.683Z,19.40
2018-06-15T20:00:10.244Z,19.30
2018-06-15T20:02:38.733Z,19.20
2018-06-15T20:07:35.182Z,19.00
2018-06-15T20:10:03.579Z,19.00
2018-06-15T20:12:32.020Z,18.90
2018-06-15T20:17:28.614Z,18.80
2018-06-15T20:19:56.948Z,18.70
2018-06-15T20:22:25.348Z,18.60
2018-06-15T20:24:53.724Z,18.60
2018-06-15T20:27:22.107Z,18.50
2018-06-15T20:29:50.501Z,18.50
2018-06-15T20:32:18.894Z,18.40
2018-06-15T20:34:47.377Z,18.40
2018-06-15T20:37:15.785Z,18.40
2018-06-15T20:39:44.179Z,18.30
2018-06-15T20:42:12.555Z,18.20
2018-06-15T20:44:40.938Z,18.20
2018-06-15T20:47:09.344Z,18.10
2018-06-15T20:49:37.732Z,18.00
2018-06-15T20:52:06.334Z,18.00
2018-06-15T20:54:34.752Z,17.90
2018-06-15T20:57:03.192Z,17.80
2018-06-15T20:59:31.703Z,17.70
2018-06-15T21:02:00.183Z,17.60
2018-06-15T21:04:28.596Z,17.50
2018-06-15T21:06:56.977Z,17.40
2018-06-15T21:11:53.441Z,17.20
2018-06-15T21:14:21.850Z,17.10
2018-06-15T21:16:50.231Z,17.00
2018-06-15T21:19:18.607Z,16.90
2018-06-15T21:21:47.044Z,16.80
2018-06-15T21:24:15.400Z,16.70
2018-06-15T21:26:43.877Z,16.60
2018-06-15T21:29:12.271Z,16.50
2018-06-15T21:31:40.652Z,16.40
2018-06-15T21:34:09.116Z,16.40
2018-06-15T21:36:37.540Z,16.30
2018-06-15T21:39:07.479Z,16.20
2018-06-15T21:41:35.893Z,16.10
2018-06-15T21:44:04.279Z,16.10
2018-06-15T21:46:32.643Z,16.00
2018-06-15T21:49:01.003Z,15.90
2018-06-15T21:51:29.402Z,15.80
2018-06-15T21:53:57.784Z,15.70
2018-06-15T21:56:26.161Z,15.70
2018-06-15T21:58:54.590Z,15.60
2018-06-15T22:01:28.162Z,15.50
2018-06-15T22:08:52.995Z,15.30
2018-06-15T22:13:49.630Z,15.20
2018-06-15T22:18:46.158Z,15.10
2018-06-15T22:21:14.524Z,15.10
2018-06-15T22:23:43.027Z,15.00
2018-06-15T22:26:11.446Z,15.00
2018-06-15T22:28:39.865Z,14.90
2018-06-15T22:31:09.024Z,14.90
2018-06-15T22:33:37.680Z,14.80
2018-06-15T22:36:06.018Z,14.80
2018-06-15T22:38:34.405Z,14.70
2018-06-15T22:41:02.768Z,14.60
2018-06-15T22:43:31.133Z,14.60
2018-06-15T22:45:59.477Z,14.50
2018-06-15T22:48:27.815Z,14.40
2018-06-15T22:50:56.237Z,14.40
2018-06-15T22:53:24.606Z,14.30
2018-06-15T22:55:52.989Z,14.30
2018-06-15T22:58:21.501Z,14.20
2018-06-15T23:00:49.924Z,14.20
2018-06-15T23:03:18.260Z,14.20
2018-06-15T23:05:46.631Z,14.20
2018-06-15T23:10:43.117Z,14.10
2018-06-15T23:13:11.497Z,14.20
2018-06-15T23:15:39.865Z,14.20
2018-06-15T23:18:08.241Z,14.20
2018-06-15T23:20:36.629Z,14.30
2018-06-15T23:23:05.111Z,14.40
2018-06-15T23:25:33.521Z,14.40
2018-06-15T23:28:01.902Z,14.30
2018-06-15T23:30:30.583Z,14.30
2018-06-15T23:32:59.085Z,14.30
2018-06-15T23:35:27.465Z,14.30
2018-06-15T23:37:55.887Z,14.30
2018-06-15T23:40:24.317Z,14.20
2018-06-15T23:42:52.729Z,14.20
2018-06-15T23:45:21.116Z,14.10
2018-06-15T23:47:49.521Z,14.10
2018-06-15T23:50:17.868Z,14.00
2018-06-15T23:52:46.266Z,13.90
2018-06-15T23:55:14.624Z,13.90
